Устье

СКИДКИ НА СМАРТФОНЫ!

Карта отелей и гостиниц, располагающихся рядом с аэропортом Устье :

Устье
Вытегра
Вологодская область 61° 12' 3.8916" N, 36° 25' 59.0592" E
Код аэродрома ИКАО
HE2U
Код аэродрома RU
ХЕ2У
Координаты
N61.20108° E036.43307°
Превышение над уровнем моря
40
Основная полоса
10/28
Курс магнитный
099,3/279,3
Длина основной ВПП
50
Ширина основной ВПП
50
Покрытие основной ВПП
Твёрдое
Освещение ВПП
Постоянное
Тип: 
Вертодром
Класс аэродрома: 
Принадлежность: 
МЧС
Статус: 
Действующий
Сайт: 
E-mail аэродрома: 
Страна: 
Россия
Регион: 
Вологодская область
Город: 
Вытегра
Дополнительная информация: 
Владелец ПП: ФГКУ "Арктический спасательный учебно-научный центр "Вытегра" МЧС России.

Скидки на навигаторы!

Найти трансфер

С помощью этой формы Вы можете найти трансфер из аэропорта Устье в город, аэропорт или вокзал:

Погода в аэропортах:

Авиационная погода в Берлевоге

Регион: 
Погода METAR: 
ENBV 091520Z AUTO 27011KT 9999 -RA SCT034 BKN044 OVC054 13/10 Q1016
Время наблюдения
2022-08-09T15:20:00Z
Температура C
13.0
Точка росы
10.0
Направление ветра
270
Скорость ветра (узлы)
11
Метео видимость
6.21
Облачность
SCT
BKN
OVC
Нижняя граница облачности (футы)
3400
4400
5400
Явления погоды
-RA
Условия полета
VFR
SCT – разбросанная отдельная облачность; BKN – значительная (рассеянная, разорванная) облачность; OVC – сплошная облачность;
-RA - слабый дождь;

Авиационная погода в Ханты-Мансийске

Регион: 
Погода METAR: 
USHH 091530Z 29001MPS 1200 1100SW R24/1200N FU BKN031 22/20 Q1017 R24/010060 TEMPO 0500 FU OVC002
Время наблюдения
2022-08-09T15:30:00Z
Температура C
22.0
Точка росы
20.0
Направление ветра
290
Скорость ветра (узлы)
2
Метео видимость
0.75
Облачность
BKN
Нижняя граница облачности (футы)
3100
Явления погоды
FU
Условия полета
LIFR
Аэропорт подробнее: 
BKN – значительная (рассеянная, разорванная) облачность;
FU – дым (видимость менее 10 км);

Авиационная погода в аэропорту Семей

Регион: 
Погода METAR: 
UASS 091130Z 31004MPS 280V350 9999 -SHRA SCT040CB 24/14 Q1005 NOSIG RMK QFE735/0981
Время наблюдения
2022-08-09T11:30:00Z
Температура C
24.0
Точка росы
14.0
Направление ветра
310
Скорость ветра (узлы)
8
Метео видимость
6.21
Облачность
SCT
Нижняя граница облачности (футы)
4000
Явления погоды
-SHRA
Условия полета
VFR
Аэропорт подробнее: 
SCT – разбросанная отдельная облачность;
-SHRA - слабый ливневой дождь;

Авиационная погода в Липецке

Регион: 
Погода METAR: 
UUOL 091530Z 31003MPS 260V020 9000 -TSRA SCT///CB 24/15 Q1019 R33/290150 TEMPO VRB15MPS 1000 TSRAGR SQ BKN015CB
Время наблюдения
2022-08-09T15:30:00Z
Температура C
24.0
Точка росы
15.0
Направление ветра
310
Скорость ветра (узлы)
6
Метео видимость
5.59
Облачность
Нижняя граница облачности (футы)
Явления погоды
-TSRA
Условия полета
Аэропорт подробнее: 
TSRA - гроза с дождём;